createdAt,value
2019-05-02T00:00:35.987Z,96.95
2019-05-02T00:01:37.267Z,96.12
2019-05-02T00:02:35.977Z,97.05
2019-05-02T00:03:40.764Z,96.64
2019-05-02T00:04:36.963Z,96.64
2019-05-02T00:05:37.214Z,97.26
2019-05-02T00:06:38.124Z,96.64
2019-05-02T00:07:36.909Z,97.09
2019-05-02T00:08:35.943Z,97.20
2019-05-02T00:09:37.232Z,97.26
2019-05-02T00:10:35.881Z,97.09
2019-05-02T00:11:35.867Z,96.89
2019-05-02T00:12:35.880Z,97.26
2019-05-02T00:13:35.839Z,97.41
2019-05-02T00:14:37.257Z,97.36
2019-05-02T00:15:38.288Z,97.26
2019-05-02T00:16:35.832Z,96.89
2019-05-02T00:17:35.797Z,97.36
2019-05-02T00:18:37.230Z,97.09
2019-05-02T00:19:37.233Z,97.09
2019-05-02T00:20:35.761Z,97.41
2019-05-02T00:21:38.161Z,97.20
2019-05-02T00:22:35.789Z,96.79
2019-05-02T00:23:35.727Z,97.51
2019-05-02T00:24:39.228Z,97.72
2019-05-02T00:25:38.246Z,97.82
2019-05-02T00:26:35.689Z,97.61
2019-05-02T00:27:37.798Z,97.20
2019-05-02T00:28:35.675Z,97.51
2019-05-02T00:29:35.693Z,97.20
2019-05-02T00:30:36.128Z,97.82
2019-05-02T00:31:35.711Z,97.30
2019-05-02T00:32:35.655Z,97.51
2019-05-02T00:33:35.918Z,97.72
2019-05-02T00:34:35.611Z,97.88
2019-05-02T00:35:35.591Z,97.16
2019-05-02T00:36:35.594Z,97.20
2019-05-02T00:37:35.602Z,97.72
2019-05-02T00:38:38.434Z,97.51
2019-05-02T00:39:35.547Z,97.61
2019-05-02T00:40:35.613Z,97.72
2019-05-02T00:41:38.383Z,97.20
2019-05-02T00:42:35.549Z,97.61
2019-05-02T00:43:36.422Z,97.72
2019-05-02T00:44:35.507Z,97.82
2019-05-02T00:45:35.495Z,97.30
2019-05-02T00:46:36.202Z,97.30
2019-05-02T00:47:35.571Z,97.41
2019-05-02T00:48:35.453Z,96.84
2019-05-02T00:49:35.781Z,97.36
2019-05-02T00:50:35.430Z,97.16
2019-05-02T00:51:35.407Z,96.64
2019-05-02T00:52:36.705Z,96.74
2019-05-02T00:53:35.401Z,96.84
2019-05-02T00:54:35.399Z,96.12
2019-05-02T00:55:35.569Z,96.23
2019-05-02T00:56:35.371Z,96.58
2019-05-02T00:57:35.377Z,96.95
2019-05-02T00:58:35.397Z,96.44
2019-05-02T00:59:37.843Z,96.95
2019-05-02T01:00:36.363Z,96.84
2019-05-02T01:01:35.299Z,96.23
2019-05-02T01:02:35.988Z,96.39
2019-05-02T01:03:35.277Z,96.23
2019-05-02T01:04:35.267Z,96.23
2019-05-02T01:05:38.523Z,96.44
2019-05-02T01:06:35.244Z,96.59
2019-05-02T01:07:35.275Z,95.67
2019-05-02T01:08:35.691Z,96.18
2019-05-02T01:09:35.212Z,95.77
2019-05-02T01:10:35.329Z,95.87
2019-05-02T01:11:35.191Z,95.98
2019-05-02T01:12:39.943Z,96.08
2019-05-02T01:13:36.179Z,95.87
2019-05-02T01:14:35.168Z,95.67
2019-05-02T01:15:39.070Z,95.61
2019-05-02T01:16:36.144Z,95.77
2019-05-02T01:17:35.213Z,95.56
2019-05-02T01:18:37.137Z,95.77
2019-05-02T01:19:36.095Z,95.67
2019-05-02T01:20:35.170Z,95.77
2019-05-02T01:21:38.913Z,95.46
2019-05-02T01:22:36.101Z,95.46
2019-05-02T01:23:35.148Z,95.31
2019-05-02T01:24:39.892Z,95.67
2019-05-02T01:25:36.034Z,95.56
2019-05-02T01:26:37.801Z,95.15
2019-05-02T01:27:36.030Z,94.74
2019-05-02T01:28:35.995Z,95.25
2019-05-02T01:29:35.011Z,95.36
2019-05-02T01:30:37.140Z,95.77
2019-05-02T01:31:35.999Z,95.36
2019-05-02T01:32:35.001Z,95.56
2019-05-02T01:33:36.803Z,95.52
2019-05-02T01:34:35.949Z,95.05
2019-05-02T01:35:34.951Z,94.80
2019-05-02T01:36:36.678Z,95.21
2019-05-02T01:37:34.900Z,93.98
2019-05-02T01:38:36.240Z,94.59
2019-05-02T01:39:37.949Z,94.90
2019-05-02T01:40:35.941Z,94.80
2019-05-02T01:41:36.229Z,93.52
2019-05-02T01:42:39.933Z,92.69
2019-05-02T01:43:34.836Z,93.41
2019-05-02T01:44:36.324Z,92.29
2019-05-02T01:45:34.817Z,92.49
2019-05-02T01:46:36.242Z,93.11
2019-05-02T01:47:35.873Z,93.01
2019-05-02T01:48:34.839Z,93.35
2019-05-02T01:49:34.771Z,93.52
2019-05-02T01:50:36.287Z,93.93
2019-05-02T01:51:36.816Z,93.21
2019-05-02T01:52:36.295Z,93.62
2019-05-02T01:53:35.823Z,93.41
2019-05-02T01:54:36.291Z,93.62
2019-05-02T01:55:34.716Z,92.69
2019-05-02T01:56:36.290Z,93.48
2019-05-02T01:57:34.687Z,92.69
2019-05-02T01:58:34.683Z,93.52
2019-05-02T01:59:36.235Z,93.11
2019-05-02T02:00:35.678Z,92.69
2019-05-02T02:01:36.241Z,92.49
2019-05-02T02:02:34.626Z,93.31
2019-05-02T02:03:34.655Z,93.01
2019-05-02T02:04:34.602Z,93.31
2019-05-02T02:05:36.299Z,93.87
2019-05-02T02:06:34.604Z,93.56
2019-05-02T02:07:34.593Z,93.46
2019-05-02T02:08:34.595Z,94.70
2019-05-02T02:09:34.611Z,94.70
2019-05-02T02:10:36.341Z,94.08
2019-05-02T02:11:35.824Z,94.53
2019-05-02T02:12:34.519Z,94.80
2019-05-02T02:13:36.677Z,95.00
2019-05-02T02:14:34.519Z,95.10
2019-05-02T02:15:34.523Z,94.90
2019-05-02T02:16:35.220Z,94.90
2019-05-02T02:17:34.459Z,94.59
2019-05-02T02:18:34.509Z,94.49
2019-05-02T02:19:38.744Z,95.00
2019-05-02T02:20:34.427Z,94.70
2019-05-02T02:21:35.439Z,94.59
2019-05-02T02:22:39.058Z,95.21
2019-05-02T02:23:35.401Z,95.00
2019-05-02T02:24:34.436Z,95.00
2019-05-02T02:25:36.279Z,94.38
2019-05-02T02:26:34.363Z,95.21
2019-05-02T02:27:34.381Z,94.45
2019-05-02T02:28:34.341Z,93.93
2019-05-02T02:29:34.339Z,94.38
2019-05-02T02:30:34.404Z,94.18
2019-05-02T02:31:39.561Z,94.49
2019-05-02T02:32:35.340Z,94.55
2019-05-02T02:33:34.284Z,94.76
2019-05-02T02:34:34.278Z,94.76
2019-05-02T02:35:34.325Z,94.34
2019-05-02T02:36:35.003Z,94.03
2019-05-02T02:37:34.247Z,93.93
2019-05-02T02:38:35.402Z,93.52
2019-05-02T02:39:34.221Z,93.83
2019-05-02T02:40:35.703Z,93.62
2019-05-02T02:41:34.234Z,93.73
2019-05-02T02:42:34.266Z,93.83
2019-05-02T02:43:35.013Z,93.83
2019-05-02T02:44:39.857Z,93.83
2019-05-02T02:45:35.182Z,94.34
2019-05-02T02:46:37.980Z,94.13
2019-05-02T02:47:35.159Z,94.38
2019-05-02T02:49:35.180Z,94.85
2019-05-02T02:50:36.898Z,94.65
2019-05-02T02:51:35.087Z,94.45
2019-05-02T02:52:37.798Z,94.65
2019-05-02T02:53:35.078Z,94.34
2019-05-02T02:54:36.788Z,94.34
2019-05-02T02:55:35.049Z,94.65
2019-05-02T02:56:34.425Z,93.93
2019-05-02T02:57:36.027Z,94.03
2019-05-02T02:58:44.072Z,93.83
2019-05-02T02:59:35.034Z,94.13
2019-05-02T03:00:34.038Z,94.34
2019-05-02T03:01:33.994Z,94.45
2019-05-02T03:02:34.033Z,94.45
2019-05-02T03:03:35.344Z,93.93
2019-05-02T03:04:33.956Z,94.65
2019-05-02T03:05:33.985Z,94.85
2019-05-02T03:06:38.518Z,93.83
2019-05-02T03:07:35.011Z,93.98
2019-05-02T03:08:45.098Z,93.98
2019-05-02T03:09:34.909Z,94.45
2019-05-02T03:10:39.913Z,95.06
2019-05-02T03:11:34.890Z,94.70
2019-05-02T03:12:36.154Z,95.06
2019-05-02T03:13:51.213Z,94.96
2019-05-02T03:14:40.970Z,94.76
2019-05-02T03:15:34.825Z,94.45
2019-05-02T03:16:33.819Z,94.76
2019-05-02T03:17:33.796Z,94.59
2019-05-02T03:18:40.470Z,94.59
2019-05-02T03:19:34.790Z,94.34
2019-05-02T03:20:40.187Z,94.76
2019-05-02T03:21:34.750Z,94.59
2019-05-02T03:22:34.999Z,95.00
2019-05-02T03:23:34.784Z,95.00
2019-05-02T03:24:36.755Z,94.80
2019-05-02T03:25:50.148Z,94.90
2019-05-02T03:26:34.710Z,94.59
2019-05-02T03:27:37.268Z,95.10
2019-05-02T03:28:33.727Z,95.42
2019-05-02T03:29:40.908Z,95.42
2019-05-02T03:30:37.545Z,94.90
2019-05-02T03:31:33.674Z,94.80
2019-05-02T03:32:35.943Z,94.90
2019-05-02T03:33:51.978Z,94.80
2019-05-02T03:34:47.421Z,94.59
2019-05-02T03:35:43.318Z,94.70
2019-05-02T03:36:36.810Z,95.42
2019-05-02T03:37:33.592Z,94.90
2019-05-02T03:38:35.176Z,95.10
2019-05-02T03:39:33.645Z,94.90
2019-05-02T03:40:38.913Z,95.21
2019-05-02T03:41:34.530Z,94.80
2019-05-02T03:42:43.835Z,95.42
2019-05-02T03:43:34.556Z,95.00
2019-05-02T03:44:33.500Z,94.90
2019-05-02T03:45:40.213Z,94.90
2019-05-02T03:46:34.508Z,95.10
2019-05-02T03:47:37.118Z,95.10
2019-05-02T03:48:34.054Z,95.10
2019-05-02T03:49:33.446Z,94.90
2019-05-02T03:50:35.397Z,95.21
2019-05-02T03:51:33.485Z,94.90
2019-05-02T03:52:36.600Z,94.90
2019-05-02T03:53:34.467Z,94.70
2019-05-02T03:54:33.399Z,94.70
2019-05-02T03:55:33.946Z,94.70
2019-05-02T03:56:33.379Z,94.85
2019-05-02T03:57:36.173Z,95.06
2019-05-02T03:58:35.340Z,94.85
2019-05-02T03:59:38.612Z,94.24
2019-05-02T04:00:34.342Z,94.45
2019-05-02T04:01:34.819Z,94.08
2019-05-02T04:02:34.317Z,94.45
2019-05-02T04:03:33.877Z,94.13
2019-05-02T04:04:34.291Z,94.55
2019-05-02T04:05:33.897Z,94.45
2019-05-02T04:06:34.291Z,94.24
2019-05-02T04:07:39.758Z,94.59
2019-05-02T04:08:34.280Z,94.59
2019-05-02T04:09:38.735Z,95.00
2019-05-02T04:10:34.222Z,95.10
2019-05-02T04:11:39.150Z,94.80
2019-05-02T04:12:34.198Z,95.06
2019-05-02T04:13:36.295Z,95.52
2019-05-02T04:14:37.774Z,95.52
2019-05-02T04:15:35.003Z,95.52
2019-05-02T04:16:33.158Z,95.83
2019-05-02T04:17:35.325Z,96.03
2019-05-02T04:18:34.031Z,95.68
2019-05-02T04:19:34.787Z,95.21
2019-05-02T04:20:33.107Z,95.62
2019-05-02T04:21:33.102Z,95.52
2019-05-02T04:22:33.092Z,95.73
2019-05-02T04:23:33.119Z,95.52
2019-05-02T04:24:33.092Z,95.73
2019-05-02T04:25:33.889Z,95.93
2019-05-02T04:26:33.052Z,95.73
2019-05-02T04:27:34.067Z,95.73
2019-05-02T04:28:33.063Z,95.73
2019-05-02T04:29:33.323Z,95.62
2019-05-02T04:30:33.005Z,95.62
2019-05-02T04:31:33.863Z,95.73
2019-05-02T04:32:32.988Z,95.83
2019-05-02T04:33:36.667Z,95.73
2019-05-02T04:34:32.951Z,95.73
2019-05-02T04:35:34.886Z,95.73
2019-05-02T04:36:32.946Z,96.18
2019-05-02T04:37:34.517Z,96.14
2019-05-02T04:38:46.617Z,96.18
2019-05-02T04:39:33.899Z,96.49
2019-05-02T04:40:34.799Z,96.80
2019-05-02T04:41:34.538Z,96.66
2019-05-02T04:42:32.871Z,97.11
2019-05-02T04:43:32.892Z,97.11
2019-05-02T04:44:40.847Z,96.59
2019-05-02T04:45:47.307Z,97.27
2019-05-02T04:46:33.858Z,96.86
2019-05-02T04:47:32.833Z,97.17
2019-05-02T04:48:34.836Z,97.06
2019-05-02T04:49:35.883Z,96.55
2019-05-02T04:50:32.779Z,96.24
2019-05-02T04:51:33.322Z,96.96
2019-05-02T04:52:40.814Z,97.06
2019-05-02T04:53:40.988Z,97.06
2019-05-02T04:54:33.780Z,97.06
2019-05-02T04:55:33.607Z,97.01
2019-05-02T04:56:32.722Z,96.66
2019-05-02T04:57:36.901Z,96.75
2019-05-02T04:58:37.052Z,96.34
2019-05-02T04:59:33.692Z,96.03
2019-05-02T05:00:32.661Z,96.24
2019-05-02T05:01:41.921Z,96.03
2019-05-02T05:02:36.684Z,96.14
2019-05-02T05:03:33.684Z,95.62
2019-05-02T05:04:42.487Z,95.73
2019-05-02T05:05:33.619Z,95.93
2019-05-02T05:06:32.593Z,95.73
2019-05-02T05:07:43.512Z,95.62
2019-05-02T05:08:33.599Z,95.99
2019-05-02T05:09:32.615Z,95.52
2019-05-02T05:10:40.175Z,95.27
2019-05-02T05:11:33.541Z,95.52
2019-05-02T05:12:37.412Z,95.17
2019-05-02T05:13:33.553Z,95.17
2019-05-02T05:14:39.437Z,94.85
2019-05-02T05:15:39.788Z,94.76
2019-05-02T05:16:33.495Z,95.06
2019-05-02T05:17:34.110Z,94.65
2019-05-02T05:18:32.511Z,94.76
2019-05-02T05:19:32.914Z,95.37
2019-05-02T05:20:32.443Z,95.48
2019-05-02T05:21:32.434Z,95.37
2019-05-02T05:22:36.488Z,95.27
2019-05-02T05:23:33.470Z,95.83
2019-05-02T05:24:32.867Z,96.24
2019-05-02T05:25:33.381Z,96.14
2019-05-02T05:26:33.834Z,95.58
2019-05-02T05:27:33.369Z,95.52
2019-05-02T05:28:35.069Z,95.78
2019-05-02T05:29:33.375Z,95.17
2019-05-02T05:30:32.335Z,95.83
2019-05-02T05:31:32.317Z,95.68
2019-05-02T05:32:32.357Z,95.78
2019-05-02T05:33:32.307Z,95.78
2019-05-02T05:34:32.883Z,94.85
2019-05-02T05:35:32.293Z,94.90
2019-05-02T05:36:34.053Z,94.76
2019-05-02T05:37:32.251Z,94.65
2019-05-02T05:38:34.413Z,94.96
2019-05-02T05:39:32.260Z,94.45
2019-05-02T05:40:32.784Z,94.45
2019-05-02T05:41:32.248Z,93.62
2019-05-02T05:42:33.368Z,94.13
2019-05-02T05:43:32.201Z,93.56
2019-05-02T05:44:32.801Z,94.49
2019-05-02T05:45:32.165Z,94.59
2019-05-02T05:46:33.394Z,94.55
2019-05-02T05:47:33.147Z,93.93
2019-05-02T05:48:36.499Z,93.68
2019-05-02T05:49:35.037Z,93.83
2019-05-02T05:50:36.838Z,93.16
2019-05-02T05:51:33.102Z,93.31
2019-05-02T05:52:33.223Z,93.62
2019-05-02T05:53:33.075Z,92.86
2019-05-02T05:54:32.957Z,92.14
2019-05-02T05:55:33.087Z,92.55
2019-05-02T05:56:32.449Z,92.76
2019-05-02T05:57:32.038Z,92.24
2019-05-02T05:58:32.024Z,92.20
2019-05-02T05:59:32.256Z,92.20
2019-05-02T06:00:32.006Z,91.58
2019-05-02T06:01:34.800Z,91.27
2019-05-02T06:02:31.979Z,91.42
2019-05-02T06:03:34.073Z,91.93
2019-05-02T06:04:33.557Z,92.29
2019-05-02T06:05:38.501Z,92.90
2019-05-02T06:06:32.925Z,93.27
2019-05-02T06:07:33.083Z,93.01
2019-05-02T06:08:32.783Z,93.21
2019-05-02T06:09:32.490Z,92.59
2019-05-02T06:10:31.927Z,93.52
2019-05-02T06:11:31.920Z,93.11
2019-05-02T06:12:35.483Z,93.21
2019-05-02T06:13:33.843Z,93.62
2019-05-02T06:14:34.269Z,93.31
2019-05-02T06:15:33.891Z,93.27
2019-05-02T06:16:31.821Z,92.96
2019-05-02T06:17:46.777Z,93.21
2019-05-02T06:18:36.328Z,93.98
2019-05-02T06:19:32.804Z,94.13
2019-05-02T06:20:32.036Z,93.83
2019-05-02T06:21:31.758Z,93.62
2019-05-02T06:22:31.743Z,93.73
2019-05-02T06:23:36.295Z,93.52
2019-05-02T06:24:34.008Z,93.99
2019-05-02T06:25:36.714Z,93.16
2019-05-02T06:26:31.705Z,93.16
2019-05-02T06:27:31.695Z,93.27
2019-05-02T06:28:36.411Z,92.96
2019-05-02T06:29:32.737Z,93.48
2019-05-02T06:30:32.382Z,94.13
2019-05-02T06:31:31.642Z,94.15
2019-05-02T06:32:31.663Z,92.61
2019-05-02T06:33:32.398Z,92.82
2019-05-02T06:34:32.299Z,92.10
2019-05-02T06:35:33.315Z,92.71
2019-05-02T06:36:32.049Z,92.61
2019-05-02T06:37:31.577Z,92.10
2019-05-02T06:38:31.567Z,92.50
2019-05-02T06:39:32.160Z,93.02
2019-05-02T06:40:31.572Z,92.14
2019-05-02T06:41:31.562Z,93.16
2019-05-02T06:42:32.691Z,92.96
2019-05-02T06:43:31.515Z,93.37
2019-05-02T06:44:31.572Z,92.65
2019-05-02T06:45:32.219Z,92.96
2019-05-02T06:46:32.490Z,93.02
2019-05-02T06:47:31.538Z,92.86
2019-05-02T06:48:31.452Z,93.37
2019-05-02T06:49:31.471Z,93.79
2019-05-02T06:50:33.391Z,93.02
2019-05-02T06:51:32.431Z,93.48
2019-05-02T06:52:32.896Z,93.68
2019-05-02T06:53:31.432Z,93.37
2019-05-02T06:54:31.427Z,94.09
2019-05-02T06:55:36.215Z,94.24
2019-05-02T06:56:32.379Z,94.81
2019-05-02T06:57:31.354Z,94.51
2019-05-02T06:58:31.393Z,94.40
2019-05-02T06:59:31.385Z,94.46
2019-05-02T07:00:39.878Z,94.36
2019-05-02T07:01:32.315Z,93.08
2019-05-02T07:02:33.670Z,92.71
2019-05-02T07:03:31.321Z,93.49
2019-05-02T07:04:31.323Z,93.08
2019-05-02T07:05:31.269Z,92.73
2019-05-02T07:06:42.102Z,91.39
2019-05-02T07:07:36.880Z,90.26
2019-05-02T07:08:31.443Z,91.29
2019-05-02T07:09:40.471Z,91.85
2019-05-02T07:10:44.071Z,91.29
2019-05-02T07:11:33.307Z,90.67
2019-05-02T07:12:32.806Z,91.08
2019-05-02T07:13:31.210Z,91.38
2019-05-02T07:14:31.235Z,92.67
2019-05-02T07:15:33.456Z,92.83
2019-05-02T07:16:39.045Z,91.23
2019-05-02T07:17:32.252Z,91.13
2019-05-02T07:18:31.134Z,92.61
2019-05-02T07:19:31.162Z,92.87
2019-05-02T07:20:35.266Z,92.25
2019-05-02T07:21:32.105Z,92.11
2019-05-02T07:22:33.111Z,91.91
2019-05-02T07:23:32.068Z,91.13
2019-05-02T07:24:32.932Z,92.05
2019-05-02T07:25:31.197Z,91.33
2019-05-02T07:26:31.071Z,91.13
2019-05-02T07:27:33.739Z,91.74
2019-05-02T07:28:31.071Z,92.20
2019-05-02T07:29:31.054Z,92.16
2019-05-02T07:30:35.097Z,91.44
2019-05-02T07:31:32.062Z,91.23
2019-05-02T07:32:30.986Z,91.39
2019-05-02T07:33:32.390Z,91.19
2019-05-02T07:34:32.037Z,90.16
2019-05-02T07:35:31.060Z,90.16
2019-05-02T07:36:36.171Z,89.91
2019-05-02T07:37:31.951Z,90.12
2019-05-02T07:38:30.921Z,89.70
2019-05-02T07:39:30.930Z,89.29
2019-05-02T07:40:30.894Z,88.74
2019-05-02T07:41:30.896Z,88.43
2019-05-02T07:42:30.860Z,87.82
2019-05-02T07:43:30.920Z,88.02
2019-05-02T07:44:32.554Z,88.37
2019-05-02T07:45:30.889Z,89.40
2019-05-02T07:46:30.881Z,89.54
2019-05-02T07:47:34.556Z,90.01
2019-05-02T07:48:31.876Z,89.60
2019-05-02T07:49:32.242Z,88.33
2019-05-02T07:50:30.769Z,88.64
2019-05-02T07:51:30.785Z,89.04
2019-05-02T07:52:33.757Z,89.46
2019-05-02T07:53:30.821Z,88.70
2019-05-02T07:54:30.931Z,88.74
2019-05-02T07:55:35.272Z,89.25
2019-05-02T07:56:33.283Z,87.57
2019-05-02T07:57:32.307Z,87.88
2019-05-02T07:58:30.867Z,88.53
2019-05-02T07:59:30.719Z,89.19
2019-05-02T08:00:32.059Z,89.25
2019-05-02T08:01:31.815Z,88.39
2019-05-02T08:02:30.688Z,88.29
2019-05-02T08:03:33.553Z,87.98
2019-05-02T08:04:31.135Z,88.43
2019-05-02T08:05:31.458Z,88.29
2019-05-02T08:06:35.459Z,88.18
2019-05-02T08:07:34.347Z,88.08
2019-05-02T08:08:31.895Z,88.14
2019-05-02T08:09:30.682Z,86.57
2019-05-02T08:10:30.581Z,86.98
2019-05-02T08:11:37.162Z,86.28
2019-05-02T08:12:31.797Z,83.78
2019-05-02T08:13:32.372Z,83.82
2019-05-02T08:14:34.600Z,85.64
2019-05-02T08:15:31.522Z,86.91
2019-05-02T08:16:30.529Z,87.94
2019-05-02T08:17:30.479Z,87.08
2019-05-02T08:18:31.657Z,86.05
2019-05-02T08:19:30.490Z,85.95
2019-05-02T08:20:30.466Z,86.46
2019-05-02T08:21:32.627Z,87.49
2019-05-02T08:22:30.446Z,86.81
2019-05-02T08:23:30.500Z,86.98
2019-05-02T08:24:33.161Z,87.18
2019-05-02T08:25:31.471Z,86.57
2019-05-02T08:26:30.390Z,87.32
2019-05-02T08:27:34.799Z,87.24
2019-05-02T08:28:31.444Z,86.32
2019-05-02T08:29:30.803Z,86.25
2019-05-02T08:30:30.374Z,86.05
2019-05-02T08:31:30.395Z,86.22
2019-05-02T08:32:30.307Z,86.42
2019-05-02T08:33:34.609Z,87.02
2019-05-02T08:34:31.298Z,88.62
2019-05-02T08:35:30.300Z,87.70
2019-05-02T08:36:30.280Z,87.08
2019-05-02T08:37:30.362Z,86.22
2019-05-02T08:38:30.233Z,86.42
2019-05-02T08:39:33.749Z,86.11
2019-05-02T08:40:30.245Z,84.39
2019-05-02T08:41:30.212Z,83.98
2019-05-02T08:42:32.547Z,82.62
2019-05-02T08:43:30.197Z,83.95
2019-05-02T08:44:30.164Z,83.33
2019-05-02T08:45:33.118Z,82.76
2019-05-02T08:46:31.159Z,84.09
2019-05-02T08:47:30.580Z,82.68
2019-05-02T08:48:30.131Z,82.03
2019-05-02T08:49:30.111Z,80.97
2019-05-02T08:50:31.955Z,78.48
2019-05-02T08:51:30.091Z,79.57
2019-05-02T08:52:30.070Z,78.48
2019-05-02T08:53:30.061Z,80.83
2019-05-02T08:54:32.815Z,82.71
2019-05-02T08:55:30.148Z,83.23
2019-05-02T08:56:30.036Z,82.48
2019-05-02T08:57:34.167Z,81.62
2019-05-02T08:58:30.015Z,80.60
2019-05-02T08:59:29.999Z,81.10
2019-05-02T09:00:32.128Z,80.97
2019-05-02T09:01:35.199Z,79.94
2019-05-02T09:02:40.812Z,80.76
2019-05-02T09:03:38.953Z,80.90
2019-05-02T09:04:30.939Z,80.80
2019-05-02T09:05:29.971Z,81.56
2019-05-02T09:06:29.917Z,81.86
2019-05-02T09:07:31.662Z,81.41
2019-05-02T09:08:30.966Z,80.66
2019-05-02T09:09:29.900Z,78.09
2019-05-02T09:10:37.131Z,79.39
2019-05-02T09:11:30.879Z,75.54
2019-05-02T09:12:31.576Z,73.88
2019-05-02T09:13:29.862Z,72.72
2019-05-02T09:14:32.067Z,71.43
2019-05-02T09:15:31.979Z,69.60
2019-05-02T09:16:30.954Z,69.70
2019-05-02T09:17:37.669Z,70.07
2019-05-02T09:18:38.602Z,69.87
2019-05-02T09:19:34.545Z,68.25
2019-05-02T09:20:31.554Z,67.77
2019-05-02T09:21:34.270Z,68.75
2019-05-02T09:22:32.720Z,70.75
2019-05-02T09:23:34.993Z,71.67
2019-05-02T09:24:32.582Z,73.88
2019-05-02T09:25:29.751Z,73.06
2019-05-02T09:26:36.055Z,73.47
2019-05-02T09:27:31.828Z,73.13
2019-05-02T09:28:29.671Z,69.17
2019-05-02T09:29:29.677Z,67.00
2019-05-02T09:30:29.679Z,67.41
2019-05-02T09:31:29.663Z,67.07
2019-05-02T09:32:29.675Z,64.41
2019-05-02T09:33:29.641Z,63.12
2019-05-02T09:34:31.736Z,62.84
2019-05-02T09:35:29.638Z,65.27
2019-05-02T09:36:29.605Z,69.36
2019-05-02T09:37:29.587Z,68.59
2019-05-02T09:38:29.603Z,69.87
2019-05-02T09:39:32.738Z,68.79
2019-05-02T09:40:31.905Z,70.82
2019-05-02T09:41:34.437Z,73.06
2019-05-02T09:42:32.368Z,69.87
2019-05-02T09:43:34.008Z,67.58
2019-05-02T09:44:29.513Z,66.02
2019-05-02T09:45:33.480Z,66.29
2019-05-02T09:46:32.452Z,68.55
2019-05-02T09:47:35.243Z,64.92
2019-05-02T09:48:31.916Z,62.93
2019-05-02T09:49:29.446Z,64.47
2019-05-02T09:50:31.426Z,64.88
2019-05-02T09:51:29.418Z,67.10
2019-05-02T09:52:32.181Z,65.72
2019-05-02T09:53:29.397Z,67.64
2019-05-02T09:54:32.359Z,67.38
2019-05-02T09:55:31.874Z,65.82
2019-05-02T09:56:29.371Z,64.18
2019-05-02T09:57:29.366Z,61.08
2019-05-02T09:58:29.339Z,64.47
2019-05-02T09:59:30.362Z,66.40
2019-05-02T10:00:32.353Z,65.59
2019-05-02T10:01:31.718Z,63.64
2019-05-02T10:02:29.302Z,62.30
2019-05-02T10:03:29.289Z,60.93
2019-05-02T10:04:29.451Z,60.75
2019-05-02T10:05:29.305Z,62.40
2019-05-02T10:06:32.073Z,60.12
2019-05-02T10:07:29.241Z,60.45
2019-05-02T10:08:31.932Z,62.35
2019-05-02T10:09:29.227Z,62.19
2019-05-02T10:10:29.286Z,60.48
2019-05-02T10:11:29.213Z,59.51
2019-05-02T10:12:29.197Z,59.18
2019-05-02T10:13:29.197Z,58.59
2019-05-02T10:14:29.192Z,58.37
2019-05-02T10:15:29.202Z,63.66
2019-05-02T10:16:29.175Z,63.90
2019-05-02T10:17:29.197Z,61.52
2019-05-02T10:18:30.346Z,62.35
2019-05-02T10:19:30.159Z,61.21
2019-05-02T10:20:34.082Z,62.53
2019-05-02T10:21:31.865Z,60.52
2019-05-02T10:22:33.794Z,59.67
2019-05-02T10:23:32.125Z,59.94
2019-05-02T10:24:29.155Z,59.84
2019-05-02T10:25:30.766Z,59.54
2019-05-02T10:26:32.942Z,59.64
2019-05-02T10:27:29.025Z,58.27
2019-05-02T10:28:29.039Z,57.23
2019-05-02T10:29:29.909Z,57.97
2019-05-02T10:30:29.038Z,57.21
2019-05-02T10:31:35.708Z,58.00
2019-05-02T10:32:32.042Z,58.47
2019-05-02T10:33:33.674Z,56.77
2019-05-02T10:34:30.059Z,58.63
2019-05-02T10:35:36.516Z,58.83
2019-05-02T10:36:29.994Z,60.58
2019-05-02T10:37:32.354Z,58.91
2019-05-02T10:38:32.363Z,57.81
2019-05-02T10:39:36.144Z,56.68
2019-05-02T10:40:32.009Z,55.74
2019-05-02T10:41:33.531Z,56.60
2019-05-02T10:42:29.869Z,57.43
2019-05-02T10:43:28.849Z,57.34
2019-05-02T10:44:32.689Z,55.34
2019-05-02T10:45:31.729Z,55.54
2019-05-02T10:46:36.018Z,54.30
2019-05-02T10:47:29.815Z,54.21
2019-05-02T10:48:29.404Z,55.01
2019-05-02T10:49:28.835Z,54.16
2019-05-02T10:50:28.787Z,55.16
2019-05-02T10:51:28.889Z,56.93
2019-05-02T10:52:29.986Z,56.07
2019-05-02T10:53:29.304Z,56.10
2019-05-02T10:54:35.294Z,55.77
2019-05-02T10:55:29.833Z,57.14
2019-05-02T10:56:28.758Z,57.03
2019-05-02T10:57:28.747Z,56.40
2019-05-02T10:58:32.005Z,55.01
2019-05-02T10:59:29.713Z,55.09
2019-05-02T11:00:28.711Z,55.74
2019-05-02T11:01:28.760Z,54.86
2019-05-02T11:02:28.662Z,56.04
2019-05-02T11:03:28.717Z,56.07
2019-05-02T11:04:29.404Z,55.26
2019-05-02T11:05:28.695Z,57.34
2019-05-02T11:06:28.843Z,57.21
2019-05-02T11:07:28.758Z,59.34
2019-05-02T11:08:28.600Z,60.17
2019-05-02T11:09:29.347Z,59.08
2019-05-02T11:10:28.576Z,56.73
2019-05-02T11:11:32.311Z,56.70
2019-05-02T11:12:40.717Z,55.14
2019-05-02T11:13:28.529Z,55.59
2019-05-02T11:14:28.527Z,56.27
2019-05-02T11:15:28.527Z,58.40
2019-05-02T11:16:28.541Z,57.76
2019-05-02T11:17:28.529Z,59.27
2019-05-02T11:18:40.359Z,60.75
2019-05-02T11:19:29.489Z,58.04
2019-05-02T11:20:28.457Z,58.76
2019-05-02T11:21:28.704Z,60.00
2019-05-02T11:22:28.436Z,59.36
2019-05-02T11:23:28.515Z,59.54
2019-05-02T11:24:28.435Z,58.91
2019-05-02T11:25:28.427Z,58.93
2019-05-02T11:26:28.462Z,59.77
2019-05-02T11:27:28.385Z,59.64
2019-05-02T11:28:28.371Z,57.34
2019-05-02T11:29:28.363Z,57.67
2019-05-02T11:30:28.456Z,57.84
2019-05-02T11:31:28.368Z,55.91
2019-05-02T11:32:28.338Z,53.80
2019-05-02T11:33:28.344Z,56.12
2019-05-02T11:34:29.023Z,57.95
2019-05-02T11:35:28.295Z,58.73
2019-05-02T11:36:28.335Z,57.34
2019-05-02T11:37:28.307Z,54.94
2019-05-02T11:38:28.654Z,56.23
2019-05-02T11:39:41.038Z,57.92
2019-05-02T11:40:29.383Z,56.10
2019-05-02T11:41:28.281Z,53.96
2019-05-02T11:42:28.284Z,55.11
2019-05-02T11:43:28.247Z,53.14
2019-05-02T11:44:28.194Z,53.47
2019-05-02T11:45:29.869Z,54.10
2019-05-02T11:46:28.247Z,53.17
2019-05-02T11:47:28.157Z,52.82
2019-05-02T11:48:28.182Z,53.58
2019-05-02T11:49:28.141Z,54.23
2019-05-02T11:50:31.941Z,55.49
2019-05-02T11:51:29.787Z,55.82
2019-05-02T11:52:35.642Z,57.03
2019-05-02T11:53:29.379Z,53.52
2019-05-02T11:54:28.313Z,53.05
2019-05-02T11:55:29.132Z,52.94
2019-05-02T11:56:28.121Z,52.01
2019-05-02T11:57:30.620Z,50.78
2019-05-02T11:58:28.062Z,50.63
2019-05-02T11:59:29.310Z,50.48
2019-05-02T12:00:28.041Z,50.18
2019-05-02T12:01:35.796Z,50.41
2019-05-02T12:02:29.001Z,49.40
2019-05-02T12:03:32.413Z,50.91
2019-05-02T12:04:28.989Z,52.34
2019-05-02T12:05:31.859Z,50.81
2019-05-02T12:06:29.026Z,51.91
2019-05-02T12:07:28.021Z,51.06
2019-05-02T12:08:28.064Z,50.15
2019-05-02T12:09:27.950Z,52.22
2019-05-02T12:10:31.961Z,50.86
2019-05-02T12:11:28.941Z,48.58
2019-05-02T12:12:34.320Z,47.93
2019-05-02T12:13:28.906Z,46.93
2019-05-02T12:14:32.797Z,48.72
2019-05-02T12:15:28.935Z,51.93
2019-05-02T12:16:28.641Z,51.71
2019-05-02T12:17:27.862Z,52.06
2019-05-02T12:18:28.129Z,51.86
2019-05-02T12:19:27.944Z,51.73
2019-05-02T12:20:28.581Z,51.11
2019-05-02T12:21:46.691Z,50.26
2019-05-02T12:22:27.824Z,50.00
2019-05-02T12:23:27.815Z,52.87
2019-05-02T12:24:27.777Z,52.37
2019-05-02T12:25:27.987Z,53.17
2019-05-02T12:26:35.374Z,52.26
2019-05-02T12:27:27.744Z,52.87
2019-05-02T12:28:27.742Z,51.41
2019-05-02T12:29:27.786Z,51.84
2019-05-02T12:30:28.985Z,52.26
2019-05-02T12:31:28.661Z,52.22
2019-05-02T12:32:27.974Z,49.33
2019-05-02T12:33:27.757Z,50.48
2019-05-02T12:34:27.768Z,50.85
2019-05-02T12:35:27.801Z,51.81
2019-05-02T12:36:27.794Z,51.99
2019-05-02T12:37:28.502Z,53.12
2019-05-02T12:38:27.701Z,54.38
2019-05-02T12:39:27.841Z,55.11
2019-05-02T12:40:27.758Z,56.23
2019-05-02T12:41:27.761Z,53.72
2019-05-02T12:42:27.873Z,52.57
2019-05-02T12:43:27.568Z,53.30
2019-05-02T12:44:27.589Z,53.14
2019-05-02T12:45:27.547Z,53.45
2019-05-02T12:46:28.537Z,53.96
2019-05-02T12:47:27.565Z,52.11
2019-05-02T12:48:27.514Z,51.06
2019-05-02T12:49:28.088Z,50.73
2019-05-02T12:50:27.544Z,52.11
2019-05-02T12:51:27.488Z,53.55
2019-05-02T12:52:29.420Z,54.31
2019-05-02T12:53:27.509Z,54.48